Time,TemperatureF,DewpointF,PressureIn,WindDirection,WindDirectionDegrees,WindSpeedMPH,WindSpeedGustMPH,Humidity,HourlyPrecipIn,Conditions,Clouds,dailyrainin,SoftwareType,DateUTC
2018-01-20 00:09:00,58.0,-99.9,30.25,ENE,70,4.0,5.0,-999,-99.99,,,-99.99,,2018-01-20 05:09:00,
2018-01-20 00:40:00,56.0,-99.9,30.24,East,90,-999.9,-999.0,-999,-99.99,,,-99.99,,2018-01-20 05:40:00,
2018-01-20 01:09:00,56.0,-99.9,30.24,East,94,5.0,7.0,-999,-99.99,,,-99.99,,2018-01-20 06:09:00,
2018-01-20 01:39:00,56.0,-99.9,30.24,East,81,3.0,6.0,-999,-99.99,,,-99.99,,2018-01-20 06:39:00,
2018-01-20 02:09:00,56.0,-99.9,30.22,NE,50,2.0,4.0,-999,-99.99,,,-99.99,,2018-01-20 07:09:00,
2018-01-20 02:38:00,56.0,-99.9,30.22,NE,42,4.0,5.0,-999,-99.99,,,-99.99,,2018-01-20 07:38:00,
2018-01-20 03:09:00,56.0,-99.9,30.22,ENE,63,2.0,4.0,-999,-99.99,,,-99.99,,2018-01-20 08:09:00,
2018-01-20 03:40:00,56.0,-99.9,30.20,ENE,78,5.0,8.0,-999,-99.99,,,-99.99,,2018-01-20 08:40:00,
2018-01-20 04:09:00,55.0,-99.9,30.21,NE,47,4.0,5.0,-999,-99.99,,,-99.99,,2018-01-20 09:09:00,
2018-01-20 04:39:00,55.0,-99.9,30.21,NE,46,6.0,8.0,-999,-99.99,,,-99.99,,2018-01-20 09:39:00,
2018-01-20 05:39:00,55.0,-99.9,30.21,NE,42,4.0,6.0,-999,-99.99,,,-99.99,,2018-01-20 10:39:00,
2018-01-20 06:09:00,56.0,-99.9,30.18,ESE,109,8.0,13.0,-999,-99.99,,,-99.99,,2018-01-20 11:09:00,
2018-01-20 06:38:00,55.0,-99.9,30.21,NE,35,5.0,8.0,-999,-99.99,,,-99.99,,2018-01-20 11:38:00,
2018-01-20 07:09:00,55.0,-99.9,30.23,NE,48,3.0,7.0,-999,-99.99,,,-99.99,,2018-01-20 12:09:00,
2018-01-20 07:39:00,54.0,-99.9,30.23,NNE,31,6.0,8.0,-999,-99.99,,,-99.99,,2018-01-20 12:39:00,
2018-01-20 08:08:00,55.0,-99.9,30.23,ENE,78,5.0,8.0,-999,-99.99,,,-99.99,,2018-01-20 13:08:00,
2018-01-20 08:38:00,56.0,-99.9,30.24,NE,41,4.0,5.0,-999,-99.99,,,-99.99,,2018-01-20 13:38:00,
2018-01-20 09:08:00,57.0,-99.9,30.25,NNE,31,4.0,5.0,-999,-99.99,,,-99.99,,2018-01-20 14:08:00,
2018-01-20 09:39:00,57.0,-99.9,30.26,NE,45,4.0,6.0,-999,-99.99,,,-99.99,,2018-01-20 14:39:00,
2018-01-20 10:09:00,57.0,-99.9,30.28,NNE,26,4.0,4.0,-999,-99.99,,,-99.99,,2018-01-20 15:09:00,
2018-01-20 10:38:00,58.0,-99.9,30.27,ENE,67,4.0,8.0,-999,-99.99,,,-99.99,,2018-01-20 15:38:00,
2018-01-20 11:09:00,59.0,-99.9,30.27,NE,38,6.0,7.0,-999,-99.99,,,-99.99,,2018-01-20 16:09:00,
2018-01-20 11:39:00,60.0,-99.9,30.29,North,352,3.0,4.0,-999,-99.99,,,-99.99,,2018-01-20 16:39:00,
2018-01-20 12:10:00,61.0,-99.9,30.28,NNE,24,2.0,3.0,-999,-99.99,,,-99.99,,2018-01-20 17:10:00,
2018-01-20 12:39:00,62.0,-99.9,30.27,ENE,59,3.0,-999.0,-999,-99.99,,,-99.99,,2018-01-20 17:39:00,
2018-01-20 13:09:00,64.0,-99.9,30.24,ENE,66,2.0,4.0,-999,-99.99,,,-99.99,,2018-01-20 18:09:00,
2018-01-20 13:39:00,65.0,-99.9,30.23,NE,34,5.0,6.0,-999,-99.99,,,-99.99,,2018-01-20 18:39:00,
2018-01-20 14:08:00,68.0,-99.9,30.19,East,81,5.0,12.0,-999,-99.99,,,-99.99,,2018-01-20 19:08:00,
2018-01-20 14:39:00,70.0,-99.9,30.18,ENE,71,7.0,11.0,-999,-99.99,,,-99.99,,2018-01-20 19:39:00,
2018-01-20 15:09:00,69.0,-99.9,30.17,NE,43,3.0,5.0,-999,-99.99,,,-99.99,,2018-01-20 20:09:00,
2018-01-20 15:39:00,70.0,-99.9,30.18,NE,53,4.0,6.0,-999,-99.99,,,-99.99,,2018-01-20 20:39:00,
2018-01-20 16:09:00,71.0,-99.9,30.17,East,88,4.0,8.0,-999,-99.99,,,-99.99,,2018-01-20 21:09:00,
2018-01-20 16:39:00,69.0,-99.9,30.18,NE,42,4.0,8.0,-999,-99.99,,,-99.99,,2018-01-20 21:39:00,
2018-01-20 17:09:00,67.0,-99.9,30.19,NE,43,3.0,5.0,-999,-99.99,,,-99.99,,2018-01-20 22:09:00,
2018-01-20 17:39:00,66.0,-99.9,30.20,NE,43,2.0,3.0,-999,-99.99,,,-99.99,,2018-01-20 22:39:00,